• Join FlightAware (Why Join?)
  • Login
  • US Flag 
12:51AM EDT


 

Airport Tracker/Info


-or-


 

Live Flight TrackerFlight Track Log ✈ WAV761 ✈ 15-Oct-2013 ✈ PATA / TAL - PAFA / FAI

Flight Track Log - Related Links

Times and Time Zones

All times are in EDT time to prevent confusion due to time zone crossing. See the WAV761 flight status page for this flight to view local times or setup timezone preferences in your user account.

Time Position Orientation Groundspeed Altitude Reporting Facility
EDT Latitude Longitude Course Direction KTS MPH feet Rate Location/Type
10:20PM 65.1167 -151.8167 100° East 150 173 3,400  Level Anchorage Center
10:21PM 65.1333 -151.7333 65° Northeast 140 161 4,200 660 Climbing Anchorage Center
10:22PM 65.1333 -151.6500 90° East 160 184 4,800 600 Climbing Anchorage Center
10:23PM 65.1333 -151.5833 90° East 130 150 5,400 540 Climbing Anchorage Center
10:24PM 65.1167 -151.5000 115° Southeast 170 196 5,900 540 Climbing Anchorage Center
10:25PM 65.1293 -151.4777 100° East  Level Estimated
10:25PM 65.1000 -151.4167 115° Southeast 140 161 6,500  Level Anchorage Center
10:26PM 65.1000 -151.3167 90° East 190 219 7,000 240 Climbing Anchorage Center
10:27PM 65.1000 -151.2000 90° East 170 196 7,000  Level Anchorage Center
10:28PM 65.1000 -151.0833 90° East 170 196 7,000  Level Anchorage Center
10:29PM 65.0833 -150.9667 109° East 170 196 7,000  Level Anchorage Center
10:30PM 65.0667 -150.8500 109° East 180 207 7,000  Level Anchorage Center
10:31PM 65.0667 -150.7500 90° East 170 196 7,000  Level Anchorage Center
10:32PM 65.0500 -150.6333 109° East 170 196 7,000  Level Anchorage Center
10:33PM 65.0500 -150.5167 90° East 170 196 7,000  Level Anchorage Center
10:34PM 65.0333 -150.4000 109° East 180 207 7,000  Level Anchorage Center
10:35PM 65.0333 -150.2833 90° East 170 196 7,000  Level Anchorage Center
10:36PM 65.0167 -150.1667 109° East 180 207 7,000  Level Anchorage Center
10:37PM 65.0000 -150.0667 111° Southeast 180 207 7,000  Level Anchorage Center
10:38PM 65.0000 -149.9500 90° East 180 207 7,000  Level Anchorage Center
10:39PM 64.9833 -149.8333 109° East 180 207 7,000  Level Anchorage Center
10:40PM 64.9833 -149.7167 90° East 180 207 7,000  Level Anchorage Center
10:41PM 64.9667 -149.6000 109° East 170 196 7,000  Level Anchorage Center
10:42PM 64.9667 -149.4833 90° East 180 207 7,000  Level Anchorage Center
10:44PM 64.9530 -149.3442 103° East  Level FlightAware Approximate
10:51PM 64.8801 -148.6268 108° East  Level FlightAware Approximate
10:52PM 64.8661 -148.5266 101° East  Level FlightAware Approximate
10:53PM 64.8571 -148.4233 101° East  Level FlightAware Approximate
10:54PM 64.8481 -148.3201 102° East  Level FlightAware Approximate
10:55PM 64.8390 -148.2169 102° East  Level FlightAware Approximate
10:56PM 64.8299 -148.1139 102° East  Level FlightAware Approximate
10:57PM 64.8206 -148.0108 102° East  Level FlightAware Approximate
10:58PM 64.8085 -147.9097 109° East  Level FlightAware Approximate
10:59PM 64.8000 -147.8500 109° East  Level FlightAware Approximate
11:00PM 64.8151 -147.8564 109° East  Level Estimated
11:01PM 64.8151 -147.8564 109° East  Level Estimated
11:02PM 64.8151 -147.8564 109° East  Level Estimated
11:03PM 64.8151 -147.8564 109° East  Level Estimated
11:04PM 64.8151 -147.8564 109° East  Level Estimated
11:05PM 64.8151 -147.8564 109° East  Level Estimated
11:06PM 64.8151 -147.8564 109° East  Level Estimated
11:07PM 64.8151 -147.8564 109° East  Level Estimated
11:08PM 64.8151 -147.8564 109° East  Level Estimated
11:09PM 64.8151 -147.8564 109° East  Level Estimated
11:10PM 64.8151 -147.8564 109° East  Level Estimated
11:11PM 64.8151 -147.8564 109° East  Level Estimated
11:12PM 64.8151 -147.8564 109° East  Level Estimated
11:13PM 64.8151 -147.8564 109° East  Level Estimated
11:14PM 64.8151 -147.8564 109° East  Level Estimated
11:15PM 64.8151 -147.8564 109° East  Level Estimated